sensor_id;sensor_type;location;lat;lon;timestamp;P1;durP1;ratioP1;P2;durP2;ratioP2
50511;SDS011;36446;47.642;-3.018;2022-09-13T00:00:52;38.08;;;23.30;;
50511;SDS011;36446;47.642;-3.018;2022-09-13T00:03:18;12.50;;;7.30;;
50511;SDS011;36446;47.642;-3.018;2022-09-13T00:05:45;9.45;;;5.32;;
50511;SDS011;36446;47.642;-3.018;2022-09-13T00:08:11;11.20;;;6.00;;
50511;SDS011;36446;47.642;-3.018;2022-09-13T00:10:38;6.88;;;4.30;;
50511;SDS011;36446;47.642;-3.018;2022-09-13T00:13:06;18.17;;;11.55;;
50511;SDS011;36446;47.642;-3.018;2022-09-13T00:15:33;21.42;;;13.10;;
50511;SDS011;36446;47.642;-3.018;2022-09-13T00:17:59;12.35;;;6.88;;
50511;SDS011;36446;47.642;-3.018;2022-09-13T00:20:25;10.82;;;6.00;;
50511;SDS011;36446;47.642;-3.018;2022-09-13T00:22:51;11.02;;;5.50;;
50511;SDS011;36446;47.642;-3.018;2022-09-13T00:25:17;13.27;;;5.00;;
50511;SDS011;36446;47.642;-3.018;2022-09-13T00:27:42;9.80;;;4.60;;
50511;SDS011;36446;47.642;-3.018;2022-09-13T00:30:09;9.35;;;4.40;;
50511;SDS011;36446;47.642;-3.018;2022-09-13T00:32:36;11.13;;;5.25;;
50511;SDS011;36446;47.642;-3.018;2022-09-13T00:35:03;10.18;;;4.50;;
50511;SDS011;36446;47.642;-3.018;2022-09-13T00:37:30;12.40;;;4.65;;
50511;SDS011;36446;47.642;-3.018;2022-09-13T00:39:58;10.30;;;4.20;;
50511;SDS011;36446;47.642;-3.018;2022-09-13T00:42:25;8.60;;;4.28;;
50511;SDS011;36446;47.642;-3.018;2022-09-13T00:44:57;12.05;;;4.10;;
50511;SDS011;36446;47.642;-3.018;2022-09-13T00:52:35;10.18;;;4.38;;
50511;SDS011;36446;47.642;-3.018;2022-09-13T00:55:05;10.93;;;4.38;;
50511;SDS011;36446;47.642;-3.018;2022-09-13T00:57:40;8.38;;;4.28;;
50511;SDS011;36446;47.642;-3.018;2022-09-13T01:00:08;7.55;;;4.20;;
50511;SDS011;36446;47.642;-3.018;2022-09-13T01:02:39;10.27;;;4.85;;
50511;SDS011;36446;47.642;-3.018;2022-09-13T01:05:07;8.13;;;4.53;;
50511;SDS011;36446;47.642;-3.018;2022-09-13T01:07:35;9.85;;;4.40;;
50511;SDS011;36446;47.642;-3.018;2022-09-13T01:10:02;10.73;;;4.43;;
50511;SDS011;36446;47.642;-3.018;2022-09-13T01:12:48;9.70;;;4.50;;
50511;SDS011;36446;47.642;-3.018;2022-09-13T01:15:30;8.98;;;4.00;;
50511;SDS011;36446;47.642;-3.018;2022-09-13T01:17:55;10.48;;;4.55;;
50511;SDS011;36446;47.642;-3.018;2022-09-13T01:20:23;10.48;;;4.15;;
50511;SDS011;36446;47.642;-3.018;2022-09-13T01:43:10;8.18;;;4.10;;
50511;SDS011;36446;47.642;-3.018;2022-09-13T01:51:22;12.93;;;5.82;;
50511;SDS011;36446;47.642;-3.018;2022-09-13T01:57:00;8.52;;;4.03;;
50511;SDS011;36446;47.642;-3.018;2022-09-13T02:02:07;9.00;;;3.53;;
50511;SDS011;36446;47.642;-3.018;2022-09-13T02:04:37;8.55;;;3.10;;
50511;SDS011;36446;47.642;-3.018;2022-09-13T02:07:12;10.20;;;3.80;;
50511;SDS011;36446;47.642;-3.018;2022-09-13T02:09:44;8.57;;;3.00;;
50511;SDS011;36446;47.642;-3.018;2022-09-13T02:12:19;12.43;;;3.50;;
50511;SDS011;36446;47.642;-3.018;2022-09-13T02:14:58;9.77;;;2.88;;
50511;SDS011;36446;47.642;-3.018;2022-09-13T02:17:32;9.55;;;3.38;;
50511;SDS011;36446;47.642;-3.018;2022-09-13T02:20:04;10.40;;;3.15;;
50511;SDS011;36446;47.642;-3.018;2022-09-13T02:22:40;9.88;;;3.17;;
50511;SDS011;36446;47.642;-3.018;2022-09-13T02:25:13;10.70;;;3.50;;
50511;SDS011;36446;47.642;-3.018;2022-09-13T02:27:41;6.47;;;2.72;;
50511;SDS011;36446;47.642;-3.018;2022-09-13T02:30:13;10.90;;;3.22;;
50511;SDS011;36446;47.642;-3.018;2022-09-13T02:33:14;12.10;;;3.40;;
50511;SDS011;36446;47.642;-3.018;2022-09-13T02:38:22;11.60;;;3.85;;
50511;SDS011;36446;47.642;-3.018;2022-09-13T02:43:54;9.27;;;2.80;;
50511;SDS011;36446;47.642;-3.018;2022-09-13T02:55:04;9.30;;;2.92;;
50511;SDS011;36446;47.642;-3.018;2022-09-13T02:57:50;6.78;;;2.50;;
50511;SDS011;36446;47.642;-3.018;2022-09-13T03:00:18;9.57;;;3.00;;
50511;SDS011;36446;47.642;-3.018;2022-09-13T03:02:43;6.07;;;2.90;;
50511;SDS011;36446;47.642;-3.018;2022-09-13T03:05:10;7.93;;;2.90;;
50511;SDS011;36446;47.642;-3.018;2022-09-13T03:07:36;13.00;;;3.22;;
50511;SDS011;36446;47.642;-3.018;2022-09-13T03:10:04;7.88;;;2.95;;
50511;SDS011;36446;47.642;-3.018;2022-09-13T03:20:53;6.70;;;3.10;;
50511;SDS011;36446;47.642;-3.018;2022-09-13T03:31:48;6.55;;;2.60;;
50511;SDS011;36446;47.642;-3.018;2022-09-13T03:34:54;7.38;;;2.90;;
50511;SDS011;36446;47.642;-3.018;2022-09-13T03:37:33;9.15;;;2.67;;
50511;SDS011;36446;47.642;-3.018;2022-09-13T03:40:10;7.05;;;2.75;;
50511;SDS011;36446;47.642;-3.018;2022-09-13T03:42:42;6.55;;;2.72;;
50511;SDS011;36446;47.642;-3.018;2022-09-13T03:45:16;7.63;;;2.67;;
50511;SDS011;36446;47.642;-3.018;2022-09-13T03:47:45;7.47;;;3.17;;
50511;SDS011;36446;47.642;-3.018;2022-09-13T03:50:18;10.30;;;3.30;;
50511;SDS011;36446;47.642;-3.018;2022-09-13T03:52:46;7.13;;;2.75;;
50511;SDS011;36446;47.642;-3.018;2022-09-13T03:55:17;8.40;;;3.15;;
50511;SDS011;36446;47.642;-3.018;2022-09-13T03:57:44;8.30;;;3.33;;
50511;SDS011;36446;47.642;-3.018;2022-09-13T04:00:12;8.98;;;3.15;;
50511;SDS011;36446;47.642;-3.018;2022-09-13T04:02:39;6.90;;;3.25;;
50511;SDS011;36446;47.642;-3.018;2022-09-13T04:05:05;9.05;;;3.40;;
50511;SDS011;36446;47.642;-3.018;2022-09-13T04:07:31;10.23;;;3.20;;
50511;SDS011;36446;47.642;-3.018;2022-09-13T04:09:57;8.15;;;3.05;;
50511;SDS011;36446;47.642;-3.018;2022-09-13T04:12:23;7.03;;;3.03;;
50511;SDS011;36446;47.642;-3.018;2022-09-13T04:14:49;7.90;;;3.33;;
50511;SDS011;36446;47.642;-3.018;2022-09-13T04:17:15;8.60;;;3.35;;
50511;SDS011;36446;47.642;-3.018;2022-09-13T04:19:41;5.78;;;3.00;;
50511;SDS011;36446;47.642;-3.018;2022-09-13T04:22:09;7.53;;;3.33;;
50511;SDS011;36446;47.642;-3.018;2022-09-13T04:24:35;9.53;;;3.07;;
50511;SDS011;36446;47.642;-3.018;2022-09-13T04:27:02;7.35;;;3.38;;
50511;SDS011;36446;47.642;-3.018;2022-09-13T04:29:28;8.85;;;3.15;;
50511;SDS011;36446;47.642;-3.018;2022-09-13T04:31:55;8.88;;;3.10;;
50511;SDS011;36446;47.642;-3.018;2022-09-13T04:34:21;10.18;;;3.35;;
50511;SDS011;36446;47.642;-3.018;2022-09-13T04:36:47;7.30;;;2.83;;
50511;SDS011;36446;47.642;-3.018;2022-09-13T04:39:14;6.97;;;3.55;;
50511;SDS011;36446;47.642;-3.018;2022-09-13T04:41:40;6.53;;;3.10;;
50511;SDS011;36446;47.642;-3.018;2022-09-13T04:44:08;6.87;;;3.20;;
50511;SDS011;36446;47.642;-3.018;2022-09-13T04:46:34;7.27;;;3.20;;
50511;SDS011;36446;47.642;-3.018;2022-09-13T04:49:00;6.32;;;3.13;;
50511;SDS011;36446;47.642;-3.018;2022-09-13T04:51:26;8.57;;;3.10;;
50511;SDS011;36446;47.642;-3.018;2022-09-13T04:53:52;8.47;;;3.20;;
50511;SDS011;36446;47.642;-3.018;2022-09-13T04:56:19;6.13;;;3.30;;
50511;SDS011;36446;47.642;-3.018;2022-09-13T04:58:45;9.65;;;2.95;;
50511;SDS011;36446;47.642;-3.018;2022-09-13T05:01:11;8.43;;;2.83;;
50511;SDS011;36446;47.642;-3.018;2022-09-13T05:03:36;5.13;;;2.67;;
50511;SDS011;36446;47.642;-3.018;2022-09-13T05:06:07;9.30;;;2.90;;
50511;SDS011;36446;47.642;-3.018;2022-09-13T05:08:34;7.78;;;2.47;;
50511;SDS011;36446;47.642;-3.018;2022-09-13T05:11:00;11.65;;;2.67;;
50511;SDS011;36446;47.642;-3.018;2022-09-13T05:13:26;6.47;;;2.72;;
50511;SDS011;36446;47.642;-3.018;2022-09-13T05:15:55;8.60;;;2.80;;
50511;SDS011;36446;47.642;-3.018;2022-09-13T05:18:25;7.38;;;2.58;;
50511;SDS011;36446;47.642;-3.018;2022-09-13T05:20:53;7.75;;;2.75;;
50511;SDS011;36446;47.642;-3.018;2022-09-13T05:23:19;8.05;;;2.60;;
50511;SDS011;36446;47.642;-3.018;2022-09-13T05:25:51;10.43;;;3.10;;
50511;SDS011;36446;47.642;-3.018;2022-09-13T05:28:28;6.47;;;2.70;;
50511;SDS011;36446;47.642;-3.018;2022-09-13T05:31:03;5.22;;;2.63;;
50511;SDS011;36446;47.642;-3.018;2022-09-13T05:33:32;7.03;;;2.60;;
50511;SDS011;36446;47.642;-3.018;2022-09-13T05:35:59;7.53;;;2.83;;
50511;SDS011;36446;47.642;-3.018;2022-09-13T05:38:25;6.55;;;2.83;;
50511;SDS011;36446;47.642;-3.018;2022-09-13T05:40:54;6.73;;;2.90;;
50511;SDS011;36446;47.642;-3.018;2022-09-13T05:43:21;9.45;;;2.70;;
50511;SDS011;36446;47.642;-3.018;2022-09-13T05:45:47;8.23;;;3.42;;
50511;SDS011;36446;47.642;-3.018;2022-09-13T05:48:13;9.23;;;3.13;;
50511;SDS011;36446;47.642;-3.018;2022-09-13T05:50:39;7.80;;;3.17;;
50511;SDS011;36446;47.642;-3.018;2022-09-13T05:53:04;8.38;;;2.65;;
50511;SDS011;36446;47.642;-3.018;2022-09-13T05:55:31;7.93;;;2.97;;
50511;SDS011;36446;47.642;-3.018;2022-09-13T05:57:58;6.95;;;2.85;;
50511;SDS011;36446;47.642;-3.018;2022-09-13T06:00:24;8.47;;;2.90;;
50511;SDS011;36446;47.642;-3.018;2022-09-13T06:02:50;6.83;;;3.00;;
50511;SDS011;36446;47.642;-3.018;2022-09-13T06:05:16;12.02;;;5.28;;
50511;SDS011;36446;47.642;-3.018;2022-09-13T06:07:42;15.17;;;6.77;;
50511;SDS011;36446;47.642;-3.018;2022-09-13T06:10:08;14.50;;;4.85;;
50511;SDS011;36446;47.642;-3.018;2022-09-13T06:12:34;9.60;;;3.72;;
50511;SDS011;36446;47.642;-3.018;2022-09-13T06:15:00;8.97;;;3.23;;
50511;SDS011;36446;47.642;-3.018;2022-09-13T06:17:26;5.88;;;2.60;;
50511;SDS011;36446;47.642;-3.018;2022-09-13T06:19:51;7.63;;;3.20;;
50511;SDS011;36446;47.642;-3.018;2022-09-13T06:22:17;6.43;;;2.88;;
50511;SDS011;36446;47.642;-3.018;2022-09-13T06:24:43;7.77;;;2.97;;
50511;SDS011;36446;47.642;-3.018;2022-09-13T06:27:08;6.63;;;2.77;;
50511;SDS011;36446;47.642;-3.018;2022-09-13T06:29:34;9.52;;;3.42;;
50511;SDS011;36446;47.642;-3.018;2022-09-13T06:32:01;6.90;;;3.10;;
50511;SDS011;36446;47.642;-3.018;2022-09-13T06:34:27;6.50;;;2.80;;
50511;SDS011;36446;47.642;-3.018;2022-09-13T06:36:53;4.63;;;2.83;;
50511;SDS011;36446;47.642;-3.018;2022-09-13T06:39:19;7.00;;;3.35;;
50511;SDS011;36446;47.642;-3.018;2022-09-13T06:41:44;13.77;;;3.63;;
50511;SDS011;36446;47.642;-3.018;2022-09-13T06:44:10;6.90;;;3.10;;
50511;SDS011;36446;47.642;-3.018;2022-09-13T06:46:36;8.35;;;3.10;;
50511;SDS011;36446;47.642;-3.018;2022-09-13T06:49:03;7.13;;;3.30;;
50511;SDS011;36446;47.642;-3.018;2022-09-13T06:51:30;8.48;;;3.22;;
50511;SDS011;36446;47.642;-3.018;2022-09-13T06:53:57;8.80;;;3.10;;
50511;SDS011;36446;47.642;-3.018;2022-09-13T06:56:24;7.65;;;3.30;;
50511;SDS011;36446;47.642;-3.018;2022-09-13T06:58:55;7.82;;;3.10;;
50511;SDS011;36446;47.642;-3.018;2022-09-13T07:01:40;6.50;;;3.25;;
50511;SDS011;36446;47.642;-3.018;2022-09-13T07:04:10;7.53;;;3.30;;
50511;SDS011;36446;47.642;-3.018;2022-09-13T07:06:39;6.82;;;2.95;;
50511;SDS011;36446;47.642;-3.018;2022-09-13T07:09:07;8.15;;;3.65;;
50511;SDS011;36446;47.642;-3.018;2022-09-13T07:11:36;7.53;;;3.15;;
50511;SDS011;36446;47.642;-3.018;2022-09-13T07:14:03;7.45;;;3.13;;
50511;SDS011;36446;47.642;-3.018;2022-09-13T07:16:33;9.80;;;3.75;;
50511;SDS011;36446;47.642;-3.018;2022-09-13T07:19:04;7.82;;;3.40;;
50511;SDS011;36446;47.642;-3.018;2022-09-13T07:21:31;9.83;;;3.67;;
50511;SDS011;36446;47.642;-3.018;2022-09-13T07:23:58;7.27;;;3.50;;
50511;SDS011;36446;47.642;-3.018;2022-09-13T07:26:24;10.43;;;3.50;;
50511;SDS011;36446;47.642;-3.018;2022-09-13T07:28:55;7.40;;;3.45;;
50511;SDS011;36446;47.642;-3.018;2022-09-13T07:31:24;7.45;;;3.30;;
50511;SDS011;36446;47.642;-3.018;2022-09-13T07:33:56;6.93;;;3.40;;
50511;SDS011;36446;47.642;-3.018;2022-09-13T07:36:24;7.93;;;3.25;;
50511;SDS011;36446;47.642;-3.018;2022-09-13T07:38:51;6.78;;;3.10;;
50511;SDS011;36446;47.642;-3.018;2022-09-13T07:41:17;8.25;;;3.17;;
50511;SDS011;36446;47.642;-3.018;2022-09-13T07:43:48;7.17;;;3.10;;
50511;SDS011;36446;47.642;-3.018;2022-09-13T07:46:16;8.80;;;3.38;;
50511;SDS011;36446;47.642;-3.018;2022-09-13T07:48:44;8.18;;;3.47;;
50511;SDS011;36446;47.642;-3.018;2022-09-13T07:51:15;7.55;;;3.20;;
50511;SDS011;36446;47.642;-3.018;2022-09-13T07:53:49;6.10;;;3.13;;
50511;SDS011;36446;47.642;-3.018;2022-09-13T07:56:19;5.20;;;2.95;;
50511;SDS011;36446;47.642;-3.018;2022-09-13T07:58:47;8.67;;;3.40;;
50511;SDS011;36446;47.642;-3.018;2022-09-13T08:01:27;6.35;;;3.55;;
50511;SDS011;36446;47.642;-3.018;2022-09-13T08:04:03;9.15;;;3.50;;
50511;SDS011;36446;47.642;-3.018;2022-09-13T08:06:31;10.82;;;3.58;;
50511;SDS011;36446;47.642;-3.018;2022-09-13T08:08:58;5.67;;;3.20;;
50511;SDS011;36446;47.642;-3.018;2022-09-13T08:11:57;5.17;;;3.27;;
50511;SDS011;36446;47.642;-3.018;2022-09-13T08:14:17;7.43;;;3.40;;
50511;SDS011;36446;47.642;-3.018;2022-09-13T08:16:44;6.28;;;3.25;;
50511;SDS011;36446;47.642;-3.018;2022-09-13T08:19:14;7.77;;;3.50;;
50511;SDS011;36446;47.642;-3.018;2022-09-13T08:21:41;5.60;;;3.38;;
50511;SDS011;36446;47.642;-3.018;2022-09-13T08:24:12;8.35;;;3.45;;
50511;SDS011;36446;47.642;-3.018;2022-09-13T08:26:39;8.07;;;3.30;;
50511;SDS011;36446;47.642;-3.018;2022-09-13T08:29:05;7.45;;;3.45;;
50511;SDS011;36446;47.642;-3.018;2022-09-13T08:31:32;6.65;;;3.20;;
50511;SDS011;36446;47.642;-3.018;2022-09-13T08:33:59;6.97;;;3.75;;
50511;SDS011;36446;47.642;-3.018;2022-09-13T08:36:25;5.13;;;3.40;;
50511;SDS011;36446;47.642;-3.018;2022-09-13T08:38:53;6.60;;;3.30;;
50511;SDS011;36446;47.642;-3.018;2022-09-13T08:41:46;7.47;;;3.40;;
50511;SDS011;36446;47.642;-3.018;2022-09-13T08:49:56;7.00;;;3.50;;
50511;SDS011;36446;47.642;-3.018;2022-09-13T08:55:31;8.77;;;3.30;;
50511;SDS011;36446;47.642;-3.018;2022-09-13T08:58:18;9.07;;;3.63;;
50511;SDS011;36446;47.642;-3.018;2022-09-13T09:01:05;7.60;;;3.60;;
50511;SDS011;36446;47.642;-3.018;2022-09-13T09:03:37;7.40;;;3.55;;
50511;SDS011;36446;47.642;-3.018;2022-09-13T09:06:13;8.07;;;3.60;;
50511;SDS011;36446;47.642;-3.018;2022-09-13T09:08:51;9.80;;;3.88;;
50511;SDS011;36446;47.642;-3.018;2022-09-13T09:11:33;5.45;;;3.22;;
50511;SDS011;36446;47.642;-3.018;2022-09-13T09:16:52;8.50;;;3.50;;
50511;SDS011;36446;47.642;-3.018;2022-09-13T09:21:52;6.15;;;3.50;;
50511;SDS011;36446;47.642;-3.018;2022-09-13T09:24:21;7.45;;;3.50;;
50511;SDS011;36446;47.642;-3.018;2022-09-13T09:26:49;7.43;;;2.90;;
50511;SDS011;36446;47.642;-3.018;2022-09-13T09:29:22;6.00;;;3.30;;
50511;SDS011;36446;47.642;-3.018;2022-09-13T09:37:20;6.53;;;2.95;;
50511;SDS011;36446;47.642;-3.018;2022-09-13T09:39:50;7.85;;;3.33;;
50511;SDS011;36446;47.642;-3.018;2022-09-13T09:42:21;6.63;;;3.17;;
50511;SDS011;36446;47.642;-3.018;2022-09-13T09:44:54;4.65;;;3.13;;
50511;SDS011;36446;47.642;-3.018;2022-09-13T09:47:24;5.72;;;3.25;;
50511;SDS011;36446;47.642;-3.018;2022-09-13T09:50:15;5.50;;;3.10;;
50511;SDS011;36446;47.642;-3.018;2022-09-13T09:52:46;5.35;;;3.28;;
50511;SDS011;36446;47.642;-3.018;2022-09-13T09:55:34;6.17;;;3.23;;
50511;SDS011;36446;47.642;-3.018;2022-09-13T09:58:09;6.13;;;3.08;;
50511;SDS011;36446;47.642;-3.018;2022-09-13T10:00:48;5.80;;;3.17;;
50511;SDS011;36446;47.642;-3.018;2022-09-13T10:03:17;7.22;;;3.42;;
50511;SDS011;36446;47.642;-3.018;2022-09-13T10:05:46;6.28;;;3.20;;
50511;SDS011;36446;47.642;-3.018;2022-09-13T10:08:25;5.05;;;2.75;;
50511;SDS011;36446;47.642;-3.018;2022-09-13T10:10:56;6.95;;;3.28;;
50511;SDS011;36446;47.642;-3.018;2022-09-13T10:13:24;7.20;;;2.90;;
50511;SDS011;36446;47.642;-3.018;2022-09-13T10:15:54;9.73;;;3.00;;
50511;SDS011;36446;47.642;-3.018;2022-09-13T10:18:22;5.55;;;3.03;;
50511;SDS011;36446;47.642;-3.018;2022-09-13T10:23:46;5.75;;;2.60;;
50511;SDS011;36446;47.642;-3.018;2022-09-13T10:26:21;5.20;;;2.78;;
50511;SDS011;36446;47.642;-3.018;2022-09-13T10:31:44;5.07;;;2.80;;
50511;SDS011;36446;47.642;-3.018;2022-09-13T10:39:21;7.95;;;2.80;;
50511;SDS011;36446;47.642;-3.018;2022-09-13T10:44:32;6.60;;;2.97;;
50511;SDS011;36446;47.642;-3.018;2022-09-13T10:47:09;7.40;;;3.00;;
50511;SDS011;36446;47.642;-3.018;2022-09-13T10:52:25;7.68;;;3.22;;
50511;SDS011;36446;47.642;-3.018;2022-09-13T10:54:52;7.00;;;3.05;;
50511;SDS011;36446;47.642;-3.018;2022-09-13T10:57:36;5.57;;;2.78;;
50511;SDS011;36446;47.642;-3.018;2022-09-13T11:00:06;8.15;;;3.20;;
50511;SDS011;36446;47.642;-3.018;2022-09-13T11:21:53;15.98;;;9.07;;
50511;SDS011;36446;47.642;-3.018;2022-09-13T11:27:13;68.88;;;35.67;;
50511;SDS011;36446;47.642;-3.018;2022-09-13T11:32:29;37.55;;;24.30;;
50511;SDS011;36446;47.642;-3.018;2022-09-13T11:35:26;16.13;;;11.70;;
50511;SDS011;36446;47.642;-3.018;2022-09-13T11:46:00;19.60;;;13.55;;
50511;SDS011;36446;47.642;-3.018;2022-09-13T11:49:02;20.33;;;14.60;;
50511;SDS011;36446;47.642;-3.018;2022-09-13T11:51:47;19.60;;;14.02;;
50511;SDS011;36446;47.642;-3.018;2022-09-13T11:57:18;22.23;;;15.40;;
50511;SDS011;36446;47.642;-3.018;2022-09-13T12:05:39;24.42;;;17.55;;
50511;SDS011;36446;47.642;-3.018;2022-09-13T12:08:12;25.58;;;19.35;;
50511;SDS011;36446;47.642;-3.018;2022-09-13T12:13:26;23.83;;;17.65;;
50511;SDS011;36446;47.642;-3.018;2022-09-13T12:16:02;23.98;;;17.63;;
50511;SDS011;36446;47.642;-3.018;2022-09-13T12:18:48;24.35;;;18.58;;
50511;SDS011;36446;47.642;-3.018;2022-09-13T12:21:22;23.13;;;18.50;;
50511;SDS011;36446;47.642;-3.018;2022-09-13T12:24:20;24.53;;;20.17;;
50511;SDS011;36446;47.642;-3.018;2022-09-13T12:27:06;24.30;;;19.65;;
50511;SDS011;36446;47.642;-3.018;2022-09-13T12:29:43;26.67;;;19.92;;
50511;SDS011;36446;47.642;-3.018;2022-09-13T12:32:21;24.75;;;18.90;;
50511;SDS011;36446;47.642;-3.018;2022-09-13T12:52:02;26.00;;;19.85;;
50511;SDS011;36446;47.642;-3.018;2022-09-13T12:54:49;22.58;;;18.75;;
50511;SDS011;36446;47.642;-3.018;2022-09-13T13:00:29;21.02;;;16.77;;
50511;SDS011;36446;47.642;-3.018;2022-09-13T13:03:05;22.77;;;17.67;;
50511;SDS011;36446;47.642;-3.018;2022-09-13T13:05:45;22.77;;;17.02;;
50511;SDS011;36446;47.642;-3.018;2022-09-13T13:10:42;19.02;;;15.20;;
50511;SDS011;36446;47.642;-3.018;2022-09-13T13:13:18;22.33;;;16.80;;
50511;SDS011;36446;47.642;-3.018;2022-09-13T13:18:41;23.03;;;15.57;;
50511;SDS011;36446;47.642;-3.018;2022-09-13T13:26:48;20.92;;;15.07;;
50511;SDS011;36446;47.642;-3.018;2022-09-13T13:32:09;19.63;;;14.13;;
50511;SDS011;36446;47.642;-3.018;2022-09-13T13:34:46;17.75;;;14.43;;
50511;SDS011;36446;47.642;-3.018;2022-09-13T13:39:42;16.20;;;12.50;;
50511;SDS011;36446;47.642;-3.018;2022-09-13T13:42:31;17.30;;;12.48;;
50511;SDS011;36446;47.642;-3.018;2022-09-13T13:47:53;14.45;;;11.52;;
50511;SDS011;36446;47.642;-3.018;2022-09-13T13:50:33;16.90;;;12.07;;
50511;SDS011;36446;47.642;-3.018;2022-09-13T13:53:13;15.03;;;11.90;;
50511;SDS011;36446;47.642;-3.018;2022-09-13T13:55:47;14.90;;;11.63;;
50511;SDS011;36446;47.642;-3.018;2022-09-13T13:58:30;15.95;;;12.50;;
50511;SDS011;36446;47.642;-3.018;2022-09-13T14:01:02;15.63;;;10.52;;
50511;SDS011;36446;47.642;-3.018;2022-09-13T14:03:41;15.23;;;10.13;;
50511;SDS011;36446;47.642;-3.018;2022-09-13T14:06:42;15.40;;;10.40;;
50511;SDS011;36446;47.642;-3.018;2022-09-13T14:20:11;14.05;;;9.75;;
50511;SDS011;36446;47.642;-3.018;2022-09-13T14:22:40;14.57;;;9.90;;
50511;SDS011;36446;47.642;-3.018;2022-09-13T14:25:15;15.03;;;10.20;;
50511;SDS011;36446;47.642;-3.018;2022-09-13T14:27:44;14.55;;;9.88;;
50511;SDS011;36446;47.642;-3.018;2022-09-13T14:30:19;12.05;;;9.50;;
50511;SDS011;36446;47.642;-3.018;2022-09-13T14:32:49;12.73;;;9.18;;
50511;SDS011;36446;47.642;-3.018;2022-09-13T14:37:54;12.05;;;9.10;;
50511;SDS011;36446;47.642;-3.018;2022-09-13T14:40:40;14.35;;;8.68;;
50511;SDS011;36446;47.642;-3.018;2022-09-13T14:43:15;14.07;;;9.00;;
50511;SDS011;36446;47.642;-3.018;2022-09-13T14:45:46;13.48;;;8.82;;
50511;SDS011;36446;47.642;-3.018;2022-09-13T14:53:56;12.82;;;8.77;;
50511;SDS011;36446;47.642;-3.018;2022-09-13T14:59:12;15.77;;;8.52;;
50511;SDS011;36446;47.642;-3.018;2022-09-13T15:01:49;14.30;;;8.60;;
50511;SDS011;36446;47.642;-3.018;2022-09-13T15:04:15;10.85;;;8.00;;
50511;SDS011;36446;47.642;-3.018;2022-09-13T15:06:43;12.73;;;7.90;;
50511;SDS011;36446;47.642;-3.018;2022-09-13T15:11:35;13.60;;;8.27;;
50511;SDS011;36446;47.642;-3.018;2022-09-13T15:16:47;13.33;;;7.33;;
50511;SDS011;36446;47.642;-3.018;2022-09-13T15:19:15;12.52;;;7.95;;
50511;SDS011;36446;47.642;-3.018;2022-09-13T15:22:01;12.50;;;7.60;;
50511;SDS011;36446;47.642;-3.018;2022-09-13T15:24:53;14.60;;;7.72;;
50511;SDS011;36446;47.642;-3.018;2022-09-13T15:29:56;12.30;;;7.70;;
50511;SDS011;36446;47.642;-3.018;2022-09-13T15:33:27;11.30;;;7.25;;
50511;SDS011;36446;47.642;-3.018;2022-09-13T15:35:32;11.83;;;7.47;;
50511;SDS011;36446;47.642;-3.018;2022-09-13T15:38:01;13.18;;;7.63;;
50511;SDS011;36446;47.642;-3.018;2022-09-13T15:40:40;10.70;;;7.40;;
50511;SDS011;36446;47.642;-3.018;2022-09-13T15:43:07;12.15;;;7.15;;
50511;SDS011;36446;47.642;-3.018;2022-09-13T15:45:33;11.87;;;7.57;;
50511;SDS011;36446;47.642;-3.018;2022-09-13T15:47:59;10.98;;;7.53;;
50511;SDS011;36446;47.642;-3.018;2022-09-13T15:50:25;12.37;;;7.60;;
50511;SDS011;36446;47.642;-3.018;2022-09-13T15:52:54;12.43;;;7.78;;
50511;SDS011;36446;47.642;-3.018;2022-09-13T15:55:21;10.82;;;7.30;;
50511;SDS011;36446;47.642;-3.018;2022-09-13T15:57:48;12.68;;;7.43;;
50511;SDS011;36446;47.642;-3.018;2022-09-13T16:00:15;12.13;;;7.60;;
50511;SDS011;36446;47.642;-3.018;2022-09-13T16:02:42;13.63;;;7.03;;
50511;SDS011;36446;47.642;-3.018;2022-09-13T16:05:08;11.27;;;7.18;;
50511;SDS011;36446;47.642;-3.018;2022-09-13T16:07:36;11.48;;;6.68;;
50511;SDS011;36446;47.642;-3.018;2022-09-13T16:10:02;10.93;;;6.93;;
50511;SDS011;36446;47.642;-3.018;2022-09-13T16:12:31;13.13;;;7.35;;
50511;SDS011;36446;47.642;-3.018;2022-09-13T16:14:56;11.07;;;6.77;;
50511;SDS011;36446;47.642;-3.018;2022-09-13T16:17:24;8.88;;;6.47;;
50511;SDS011;36446;47.642;-3.018;2022-09-13T16:19:51;10.60;;;6.65;;
50511;SDS011;36446;47.642;-3.018;2022-09-13T16:22:17;10.35;;;6.78;;
50511;SDS011;36446;47.642;-3.018;2022-09-13T16:24:42;10.10;;;6.40;;
50511;SDS011;36446;47.642;-3.018;2022-09-13T16:27:08;10.23;;;5.53;;
50511;SDS011;36446;47.642;-3.018;2022-09-13T16:29:36;8.45;;;6.15;;
50511;SDS011;36446;47.642;-3.018;2022-09-13T16:32:02;9.57;;;6.30;;
50511;SDS011;36446;47.642;-3.018;2022-09-13T16:34:29;11.68;;;5.38;;
50511;SDS011;36446;47.642;-3.018;2022-09-13T16:36:54;10.03;;;5.33;;
50511;SDS011;36446;47.642;-3.018;2022-09-13T16:39:20;9.88;;;5.50;;
50511;SDS011;36446;47.642;-3.018;2022-09-13T16:41:46;10.57;;;5.97;;
50511;SDS011;36446;47.642;-3.018;2022-09-13T16:44:12;9.65;;;6.20;;
50511;SDS011;36446;47.642;-3.018;2022-09-13T16:46:38;9.40;;;5.77;;
50511;SDS011;36446;47.642;-3.018;2022-09-13T16:49:04;9.80;;;5.97;;
50511;SDS011;36446;47.642;-3.018;2022-09-13T16:51:30;9.75;;;6.43;;
50511;SDS011;36446;47.642;-3.018;2022-09-13T16:53:55;12.00;;;5.53;;
50511;SDS011;36446;47.642;-3.018;2022-09-13T16:56:22;11.90;;;5.75;;
50511;SDS011;36446;47.642;-3.018;2022-09-13T16:58:49;9.38;;;4.97;;
50511;SDS011;36446;47.642;-3.018;2022-09-13T17:01:18;8.75;;;5.55;;
50511;SDS011;36446;47.642;-3.018;2022-09-13T17:03:46;10.05;;;5.68;;
50511;SDS011;36446;47.642;-3.018;2022-09-13T17:06:13;11.10;;;5.47;;
50511;SDS011;36446;47.642;-3.018;2022-09-13T17:08:41;8.85;;;5.03;;
50511;SDS011;36446;47.642;-3.018;2022-09-13T17:11:15;35.92;;;21.63;;
50511;SDS011;36446;47.642;-3.018;2022-09-13T17:13:43;18.00;;;9.20;;
50511;SDS011;36446;47.642;-3.018;2022-09-13T17:16:20;10.13;;;4.93;;
50511;SDS011;36446;47.642;-3.018;2022-09-13T17:18:49;52.78;;;29.73;;
50511;SDS011;36446;47.642;-3.018;2022-09-13T17:21:15;111.45;;;66.22;;
50511;SDS011;36446;47.642;-3.018;2022-09-13T17:23:41;21.55;;;11.70;;
50511;SDS011;36446;47.642;-3.018;2022-09-13T17:26:07;9.20;;;4.17;;
50511;SDS011;36446;47.642;-3.018;2022-09-13T17:28:32;11.60;;;4.85;;
50511;SDS011;36446;47.642;-3.018;2022-09-13T17:31:00;10.48;;;4.38;;
50511;SDS011;36446;47.642;-3.018;2022-09-13T17:33:26;11.68;;;6.38;;
50511;SDS011;36446;47.642;-3.018;2022-09-13T17:35:58;26.52;;;14.65;;
50511;SDS011;36446;47.642;-3.018;2022-09-13T17:38:25;13.23;;;7.83;;
50511;SDS011;36446;47.642;-3.018;2022-09-13T17:41:01;9.05;;;3.75;;
50511;SDS011;36446;47.642;-3.018;2022-09-13T17:43:33;8.43;;;3.63;;
50511;SDS011;36446;47.642;-3.018;2022-09-13T17:46:07;9.23;;;3.33;;
50511;SDS011;36446;47.642;-3.018;2022-09-13T17:48:38;9.93;;;3.67;;
50511;SDS011;36446;47.642;-3.018;2022-09-13T17:51:08;11.13;;;3.47;;
50511;SDS011;36446;47.642;-3.018;2022-09-13T17:53:36;12.52;;;5.65;;
50511;SDS011;36446;47.642;-3.018;2022-09-13T17:56:03;9.13;;;3.03;;
50511;SDS011;36446;47.642;-3.018;2022-09-13T17:58:29;7.90;;;3.25;;
50511;SDS011;36446;47.642;-3.018;2022-09-13T18:01:01;8.77;;;3.57;;
50511;SDS011;36446;47.642;-3.018;2022-09-13T18:03:28;11.10;;;3.42;;
50511;SDS011;36446;47.642;-3.018;2022-09-13T18:05:56;7.78;;;3.38;;
50511;SDS011;36446;47.642;-3.018;2022-09-13T18:08:23;8.65;;;3.30;;
50511;SDS011;36446;47.642;-3.018;2022-09-13T18:10:49;8.23;;;3.13;;
50511;SDS011;36446;47.642;-3.018;2022-09-13T18:13:15;5.97;;;3.20;;
50511;SDS011;36446;47.642;-3.018;2022-09-13T18:15:41;10.93;;;3.40;;
50511;SDS011;36446;47.642;-3.018;2022-09-13T18:18:07;10.07;;;3.38;;
50511;SDS011;36446;47.642;-3.018;2022-09-13T18:20:33;9.70;;;3.22;;
50511;SDS011;36446;47.642;-3.018;2022-09-13T18:22:58;10.23;;;3.47;;
50511;SDS011;36446;47.642;-3.018;2022-09-13T18:25:24;8.33;;;3.10;;